createdAt,value
2018-03-25T00:01:46.746Z,12.03
2018-03-25T00:04:13.446Z,11.40
2018-03-25T00:06:40.205Z,12.30
2018-03-25T00:09:06.910Z,11.37
2018-03-25T00:11:33.615Z,12.87
2018-03-25T00:14:00.314Z,13.30
2018-03-25T00:16:26.991Z,14.00
2018-03-25T00:18:53.722Z,15.00
2018-03-25T00:21:20.476Z,12.60
2018-03-25T00:23:47.202Z,13.27
2018-03-25T00:26:13.909Z,11.73
2018-03-25T00:28:40.601Z,12.30
2018-03-25T00:31:07.317Z,11.67
2018-03-25T00:33:35.240Z,11.67
2018-03-25T00:36:01.932Z,13.20
2018-03-25T00:38:28.640Z,13.60
2018-03-25T00:40:55.321Z,11.83
2018-03-25T00:43:22.017Z,12.47
2018-03-25T00:45:48.766Z,13.70
2018-03-25T00:48:15.458Z,13.33
2018-03-25T00:50:42.145Z,13.20
2018-03-25T00:53:08.844Z,12.93
2018-03-25T00:55:35.518Z,11.93
2018-03-25T00:58:02.197Z,13.13
2018-03-25T01:00:28.944Z,13.00
2018-03-25T01:02:55.641Z,12.23
2018-03-25T01:05:22.365Z,13.63
2018-03-25T01:07:49.090Z,12.87
2018-03-25T01:10:15.812Z,13.27
2018-03-25T01:12:42.514Z,12.67
2018-03-25T01:15:09.419Z,12.40
2018-03-25T01:17:36.113Z,13.50
2018-03-25T01:20:02.853Z,12.67
2018-03-25T01:22:29.565Z,14.00
2018-03-25T01:24:56.245Z,12.70
2018-03-25T01:27:23.041Z,13.63
2018-03-25T01:29:49.746Z,12.13
2018-03-25T01:32:16.408Z,11.00
2018-03-25T01:34:43.132Z,12.50
2018-03-25T01:37:09.866Z,12.20
2018-03-25T01:39:36.575Z,13.03
2018-03-25T01:42:03.271Z,11.53
2018-03-25T01:44:29.982Z,12.77
2018-03-25T01:46:56.666Z,12.83
2018-03-25T01:49:23.518Z,13.40
2018-03-25T01:51:50.393Z,13.40
2018-03-25T01:54:17.093Z,12.40
2018-03-25T01:56:43.884Z,13.73
2018-03-25T01:59:10.573Z,13.83
2018-03-25T02:01:37.302Z,13.23
2018-03-25T02:04:04.776Z,12.50
2018-03-25T02:06:31.474Z,14.43
2018-03-25T02:08:58.146Z,9.70
2018-03-25T02:11:24.856Z,11.43
2018-03-25T02:13:51.545Z,12.63
2018-03-25T02:16:18.238Z,11.50
2018-03-25T02:18:45.144Z,16.13
2018-03-25T02:21:11.828Z,11.60
2018-03-25T02:23:38.573Z,13.43
2018-03-25T02:26:05.245Z,11.80
2018-03-25T02:28:31.953Z,14.27
2018-03-25T02:30:58.636Z,13.40
2018-03-25T02:33:25.312Z,14.47
2018-03-25T02:35:52.017Z,12.10
2018-03-25T02:38:18.701Z,13.00
2018-03-25T02:40:45.501Z,12.23
2018-03-25T02:43:12.182Z,13.70
2018-03-25T02:45:39.017Z,13.03
2018-03-25T02:48:05.731Z,12.47
2018-03-25T02:50:32.434Z,13.17
2018-03-25T02:52:59.123Z,12.20
2018-03-25T02:55:25.830Z,12.68
2018-03-25T02:57:52.533Z,15.03
2018-03-25T03:00:19.435Z,12.30
2018-03-25T03:02:46.137Z,11.60
2018-03-25T03:05:12.855Z,12.07
2018-03-25T03:07:39.540Z,13.07
2018-03-25T03:10:06.245Z,14.30
2018-03-25T03:12:33.127Z,13.63
2018-03-25T03:14:59.829Z,13.43
2018-03-25T03:17:26.606Z,13.10
2018-03-25T03:19:53.477Z,13.63
2018-03-25T03:22:20.156Z,11.37
2018-03-25T03:24:46.853Z,13.40
2018-03-25T03:27:13.570Z,14.33
2018-03-25T03:29:40.270Z,12.37
2018-03-25T03:32:06.945Z,13.57
2018-03-25T03:34:33.650Z,13.33
2018-03-25T03:37:00.325Z,15.63
2018-03-25T03:39:27.078Z,13.40
2018-03-25T03:41:53.781Z,12.55
2018-03-25T03:44:20.473Z,12.10
2018-03-25T03:46:47.167Z,12.10
2018-03-25T03:49:13.858Z,13.87
2018-03-25T03:51:40.593Z,13.57
2018-03-25T03:54:07.282Z,13.77
2018-03-25T03:56:33.981Z,12.13
2018-03-25T03:59:00.750Z,12.07
2018-03-25T04:01:27.618Z,13.20
2018-03-25T04:03:54.325Z,14.77
2018-03-25T04:06:20.994Z,12.57
2018-03-25T04:08:47.701Z,13.83
2018-03-25T04:11:14.392Z,12.63
2018-03-25T04:13:41.112Z,13.80
2018-03-25T04:16:07.800Z,12.98
2018-03-25T04:18:34.501Z,12.90
2018-03-25T04:21:01.189Z,14.02
2018-03-25T04:23:27.864Z,12.53
2018-03-25T04:25:54.658Z,13.70
2018-03-25T04:28:21.365Z,14.52
2018-03-25T04:30:48.056Z,15.80
2018-03-25T04:33:14.853Z,13.93
2018-03-25T04:35:41.554Z,13.60
2018-03-25T04:38:08.251Z,12.43
2018-03-25T04:40:35.033Z,12.30
2018-03-25T04:43:01.730Z,11.35
2018-03-25T04:45:28.502Z,12.75
2018-03-25T04:47:55.202Z,13.68
2018-03-25T04:50:21.905Z,11.70
2018-03-25T04:52:48.616Z,13.85
2018-03-25T04:55:15.298Z,11.70
2018-03-25T04:57:41.985Z,13.60
2018-03-25T05:00:08.852Z,14.00
2018-03-25T05:02:35.565Z,14.43
2018-03-25T05:05:02.365Z,13.00
2018-03-25T05:07:29.037Z,14.13
2018-03-25T05:09:55.873Z,12.73
2018-03-25T05:12:22.591Z,13.07
2018-03-25T05:14:49.297Z,13.55
2018-03-25T05:17:16.011Z,13.40
2018-03-25T05:19:42.805Z,11.30
2018-03-25T05:22:09.488Z,12.37
2018-03-25T05:24:36.201Z,13.40
2018-03-25T05:27:02.896Z,13.50
2018-03-25T05:29:29.584Z,13.45
2018-03-25T05:31:56.300Z,12.57
2018-03-25T05:34:22.998Z,13.70
2018-03-25T05:36:49.708Z,13.52
2018-03-25T05:39:16.388Z,14.57
2018-03-25T05:41:43.181Z,13.27
2018-03-25T05:44:09.883Z,13.55
2018-03-25T05:46:36.569Z,13.00
2018-03-25T05:49:03.281Z,14.65
2018-03-25T05:51:30.205Z,12.85
2018-03-25T05:53:56.982Z,12.40
2018-03-25T05:56:23.665Z,13.38
2018-03-25T05:58:50.373Z,13.93
2018-03-25T06:01:17.099Z,11.23
2018-03-25T06:03:43.759Z,13.53
2018-03-25T06:06:10.437Z,13.93
2018-03-25T06:08:37.138Z,14.47
2018-03-25T06:11:03.970Z,12.20
2018-03-25T06:13:30.657Z,11.40
2018-03-25T06:15:57.435Z,12.93
2018-03-25T06:18:24.085Z,14.10
2018-03-25T06:20:50.775Z,11.90
2018-03-25T06:23:17.486Z,13.87
2018-03-25T06:25:44.167Z,13.90
2018-03-25T06:28:10.963Z,11.87
2018-03-25T06:30:37.725Z,12.70
2018-03-25T06:33:04.429Z,12.50
2018-03-25T06:35:31.117Z,13.10
2018-03-25T06:37:57.853Z,12.30
2018-03-25T06:40:24.619Z,12.57
2018-03-25T06:42:51.322Z,12.40
2018-03-25T06:45:18.058Z,12.37
2018-03-25T06:47:45.275Z,12.53
2018-03-25T06:50:12.165Z,11.10
2018-03-25T06:52:38.846Z,12.57
2018-03-25T06:55:05.568Z,13.63
2018-03-25T06:57:32.474Z,13.00
2018-03-25T06:59:59.184Z,13.70
2018-03-25T07:02:25.869Z,15.00
2018-03-25T07:04:52.545Z,12.83
2018-03-25T07:07:19.249Z,16.30
2018-03-25T07:09:46.111Z,13.70
2018-03-25T07:12:12.807Z,12.90
2018-03-25T07:14:39.597Z,13.23
2018-03-25T07:17:06.320Z,15.00
2018-03-25T07:19:33.236Z,13.23
2018-03-25T07:21:59.924Z,16.27
2018-03-25T07:24:26.609Z,15.70
2018-03-25T07:26:53.322Z,15.17
2018-03-25T07:29:20.026Z,15.37
2018-03-25T07:31:46.710Z,16.67
2018-03-25T07:34:13.526Z,16.70
2018-03-25T07:36:40.357Z,17.67
2018-03-25T07:39:07.093Z,16.60
2018-03-25T07:41:33.782Z,15.30
2018-03-25T07:44:00.482Z,17.37
2018-03-25T07:46:27.384Z,15.77
2018-03-25T07:48:54.085Z,17.27
2018-03-25T07:51:20.794Z,15.77
2018-03-25T07:53:47.509Z,17.30
2018-03-25T07:56:14.189Z,18.57
2018-03-25T07:58:40.907Z,17.20
2018-03-25T08:01:07.601Z,18.77
2018-03-25T08:03:34.279Z,17.73
2018-03-25T08:06:00.992Z,17.50
2018-03-25T08:08:27.714Z,16.83
2018-03-25T08:10:54.400Z,17.07
2018-03-25T08:13:21.108Z,17.50
2018-03-25T08:15:47.883Z,16.87
2018-03-25T08:18:14.561Z,17.33
2018-03-25T08:20:41.269Z,17.13
2018-03-25T08:23:07.949Z,17.57
2018-03-25T08:25:34.641Z,16.97
2018-03-25T08:28:01.365Z,17.50
2018-03-25T08:30:28.117Z,15.93
2018-03-25T08:32:54.834Z,16.50
2018-03-25T08:35:21.525Z,16.57
2018-03-25T08:37:48.325Z,17.40
2018-03-25T08:40:15.185Z,17.10
2018-03-25T08:42:41.857Z,18.93
2018-03-25T08:45:08.570Z,17.63
2018-03-25T08:47:35.294Z,17.97
2018-03-25T08:50:02.026Z,17.20
2018-03-25T08:52:28.769Z,15.30
2018-03-25T08:54:55.457Z,18.03
2018-03-25T08:57:22.157Z,17.80
2018-03-25T08:59:48.880Z,16.03
2018-03-25T09:02:15.569Z,16.93
2018-03-25T09:04:42.328Z,17.10
2018-03-25T09:07:09.055Z,19.00
2018-03-25T09:09:35.852Z,17.60
2018-03-25T09:12:02.584Z,18.23
2018-03-25T09:14:29.478Z,17.67
2018-03-25T09:16:56.199Z,17.67
2018-03-25T09:19:22.933Z,17.03
2018-03-25T09:21:49.621Z,18.10
2018-03-25T09:24:16.422Z,17.43
2018-03-25T09:26:43.116Z,16.80
2018-03-25T09:29:09.814Z,19.37
2018-03-25T09:31:36.560Z,18.70
2018-03-25T09:34:03.308Z,16.60
2018-03-25T09:36:30.008Z,17.03
2018-03-25T09:38:56.710Z,19.17
2018-03-25T09:41:23.449Z,17.50
2018-03-25T09:43:50.165Z,17.43
2018-03-25T09:46:16.887Z,16.83
2018-03-25T09:48:43.706Z,17.77
2018-03-25T09:51:10.434Z,16.73
2018-03-25T09:53:37.190Z,15.47
2018-03-25T09:56:03.887Z,16.30
2018-03-25T09:58:30.634Z,15.33
2018-03-25T10:01:02.886Z,17.43
2018-03-25T10:03:30.651Z,17.10
2018-03-25T10:05:57.485Z,16.70
2018-03-25T10:08:24.249Z,17.00
2018-03-25T10:10:50.937Z,17.13
2018-03-25T10:13:17.656Z,18.30
2018-03-25T10:15:44.410Z,18.03
2018-03-25T10:18:11.126Z,19.50
2018-03-25T10:20:37.815Z,16.57
2018-03-25T10:23:04.543Z,17.00
2018-03-25T10:25:31.257Z,17.90
2018-03-25T10:27:58.095Z,17.73
2018-03-25T10:30:24.793Z,16.63
2018-03-25T10:32:51.481Z,17.27
2018-03-25T10:35:18.181Z,15.20
2018-03-25T10:37:44.908Z,16.20
2018-03-25T10:40:11.594Z,13.63
2018-03-25T10:42:38.292Z,15.43
2018-03-25T10:45:04.995Z,15.87
2018-03-25T10:47:31.699Z,15.47
2018-03-25T10:49:58.390Z,16.90
2018-03-25T10:52:25.117Z,17.70
2018-03-25T10:54:51.950Z,16.47
2018-03-25T10:57:18.720Z,15.97
2018-03-25T10:59:45.447Z,17.13
2018-03-25T11:02:12.163Z,17.63
2018-03-25T11:04:38.906Z,17.20
2018-03-25T11:07:05.626Z,15.70
2018-03-25T11:09:32.302Z,17.30
2018-03-25T11:11:59.034Z,17.53
2018-03-25T11:14:25.737Z,18.53
2018-03-25T11:16:52.527Z,17.77
2018-03-25T11:19:19.242Z,17.70
2018-03-25T11:21:46.005Z,18.00
2018-03-25T11:24:12.721Z,18.30
2018-03-25T11:26:39.446Z,15.53
2018-03-25T11:29:06.146Z,14.97
2018-03-25T11:31:32.840Z,16.47
2018-03-25T11:33:59.565Z,16.27
2018-03-25T11:36:26.343Z,15.70
2018-03-25T11:38:53.033Z,17.13
2018-03-25T11:41:19.746Z,18.03
2018-03-25T11:43:46.431Z,18.00
2018-03-25T11:46:13.133Z,16.63
2018-03-25T11:48:39.849Z,17.40
2018-03-25T11:51:06.534Z,20.23
2018-03-25T11:53:33.242Z,18.80
2018-03-25T11:56:00.046Z,18.47
2018-03-25T11:58:26.781Z,18.33
2018-03-25T12:00:53.508Z,18.07
2018-03-25T12:03:20.178Z,18.43
2018-03-25T12:05:46.899Z,19.60
2018-03-25T12:08:13.726Z,18.27
2018-03-25T12:10:40.409Z,18.90
2018-03-25T12:13:07.125Z,18.50
2018-03-25T12:15:33.832Z,19.30
2018-03-25T12:18:00.630Z,18.30
2018-03-25T12:20:27.351Z,18.83
2018-03-25T12:22:54.045Z,20.50
2018-03-25T12:25:20.758Z,17.63
2018-03-25T12:27:47.473Z,21.97
2018-03-25T12:30:14.173Z,20.17
2018-03-25T12:32:40.875Z,20.13
2018-03-25T12:35:07.641Z,18.80
2018-03-25T12:37:34.426Z,18.97
2018-03-25T12:40:01.113Z,19.47
2018-03-25T12:42:27.837Z,20.00
2018-03-25T12:44:54.564Z,20.30
2018-03-25T12:47:21.262Z,20.20
2018-03-25T12:49:47.981Z,19.80
2018-03-25T12:52:14.822Z,21.93
2018-03-25T12:54:41.531Z,22.93
2018-03-25T12:57:08.355Z,23.17
2018-03-25T12:59:35.037Z,21.53
2018-03-25T13:02:01.778Z,20.87
2018-03-25T13:04:28.502Z,20.83
2018-03-25T13:06:55.189Z,21.10
2018-03-25T13:09:21.957Z,23.00
2018-03-25T13:11:48.713Z,22.27
2018-03-25T13:14:15.414Z,20.80
2018-03-25T13:16:42.133Z,21.43
2018-03-25T13:19:08.819Z,20.80
2018-03-25T13:21:35.505Z,20.77
2018-03-25T13:24:02.230Z,21.40
2018-03-25T13:26:28.920Z,22.23
2018-03-25T13:28:55.748Z,23.77
2018-03-25T13:31:22.398Z,21.80
2018-03-25T13:33:49.104Z,21.20
2018-03-25T13:36:15.786Z,24.50
2018-03-25T13:38:42.570Z,22.53
2018-03-25T13:41:09.296Z,22.93
2018-03-25T13:43:36.027Z,24.30
2018-03-25T13:46:02.709Z,23.40
2018-03-25T13:48:29.392Z,23.00
2018-03-25T13:50:56.095Z,22.27
2018-03-25T13:53:22.802Z,23.33
2018-03-25T13:55:49.504Z,22.20
2018-03-25T13:58:16.332Z,22.10
2018-03-25T14:00:43.048Z,22.57
2018-03-25T14:03:09.746Z,24.37
2018-03-25T14:05:36.435Z,23.97
2018-03-25T14:08:03.141Z,23.17
2018-03-25T14:10:29.912Z,24.20
2018-03-25T14:12:56.682Z,25.33
2018-03-25T14:15:23.320Z,22.73
2018-03-25T14:17:50.248Z,25.40
2018-03-25T14:20:16.936Z,23.97
2018-03-25T14:22:43.682Z,25.17
2018-03-25T14:25:10.382Z,25.07
2018-03-25T14:27:37.097Z,25.97
2018-03-25T14:30:03.797Z,22.80
2018-03-25T14:32:30.504Z,25.00
2018-03-25T14:34:57.246Z,25.70
2018-03-25T14:37:23.998Z,24.07
2018-03-25T14:39:50.717Z,25.80
2018-03-25T14:42:17.394Z,26.20
2018-03-25T14:44:44.200Z,26.93
2018-03-25T14:47:10.869Z,26.37
2018-03-25T14:49:37.579Z,26.10
2018-03-25T14:52:04.265Z,28.47
2018-03-25T14:54:31.014Z,28.97
2018-03-25T14:56:57.754Z,29.97
2018-03-25T14:59:24.485Z,28.47
2018-03-25T15:01:51.174Z,31.43
2018-03-25T15:04:17.900Z,30.57
2018-03-25T15:06:44.609Z,29.57
2018-03-25T15:09:11.309Z,30.77
2018-03-25T15:11:38.009Z,27.50
2018-03-25T15:14:04.878Z,28.70
2018-03-25T15:16:31.571Z,27.67
2018-03-25T15:18:58.269Z,27.57
2018-03-25T15:21:24.991Z,26.63
2018-03-25T15:23:51.690Z,28.20
2018-03-25T15:26:18.385Z,29.77
2018-03-25T15:28:45.109Z,29.60
2018-03-25T15:31:11.805Z,26.60
2018-03-25T15:33:38.521Z,26.73
2018-03-25T15:36:05.234Z,26.07
2018-03-25T15:38:31.937Z,24.40
2018-03-25T15:40:58.646Z,25.97
2018-03-25T15:43:25.339Z,24.63
2018-03-25T15:45:52.039Z,25.27
2018-03-25T15:48:18.726Z,25.63
2018-03-25T15:50:45.452Z,25.47
2018-03-25T15:53:12.144Z,23.93
2018-03-25T15:55:38.842Z,22.33
2018-03-25T15:58:05.563Z,24.27
2018-03-25T16:00:32.284Z,23.47
2018-03-25T16:02:58.984Z,21.20
2018-03-25T16:05:25.698Z,21.90
2018-03-25T16:07:52.412Z,23.17
2018-03-25T16:10:19.114Z,23.73
2018-03-25T16:12:45.815Z,22.93
2018-03-25T16:15:12.494Z,21.63
2018-03-25T16:17:39.205Z,21.53
2018-03-25T16:20:05.918Z,20.87
2018-03-25T16:22:32.616Z,20.70
2018-03-25T16:24:59.513Z,22.37
2018-03-25T16:27:26.212Z,21.50
2018-03-25T16:29:52.917Z,21.93
2018-03-25T16:32:19.622Z,21.70
2018-03-25T16:34:46.326Z,21.40
2018-03-25T16:37:13.043Z,19.87
2018-03-25T16:39:39.749Z,21.60
2018-03-25T16:42:06.451Z,22.27
2018-03-25T16:44:33.182Z,22.30
2018-03-25T16:46:59.882Z,22.50
2018-03-25T16:49:26.633Z,23.00
2018-03-25T16:51:53.327Z,21.53
2018-03-25T16:54:20.022Z,21.60
2018-03-25T16:56:46.730Z,21.90
2018-03-25T16:59:13.519Z,19.00
2018-03-25T17:01:40.331Z,18.73
2018-03-25T17:04:07.082Z,20.65
2018-03-25T17:06:33.787Z,19.30
2018-03-25T17:09:00.526Z,21.87
2018-03-25T17:11:27.270Z,21.90
2018-03-25T17:13:54.002Z,23.17
2018-03-25T17:16:20.708Z,22.87
2018-03-25T17:18:47.394Z,24.10
2018-03-25T17:21:14.123Z,24.83
2018-03-25T17:23:40.923Z,22.50
2018-03-25T17:26:07.694Z,22.60
2018-03-25T17:28:34.391Z,22.80
2018-03-25T17:31:01.123Z,24.10
2018-03-25T17:33:27.853Z,19.73
2018-03-25T17:35:54.646Z,22.43
2018-03-25T17:38:21.343Z,20.87
2018-03-25T17:40:48.068Z,22.00
2018-03-25T17:43:14.802Z,21.00
2018-03-25T17:45:41.487Z,23.20
2018-03-25T17:48:08.203Z,21.70
2018-03-25T17:50:34.956Z,19.47
2018-03-25T17:53:01.650Z,21.10
2018-03-25T17:55:28.348Z,18.77
2018-03-25T17:57:55.080Z,20.60
2018-03-25T18:00:21.835Z,20.37
2018-03-25T18:02:48.529Z,20.33
2018-03-25T18:05:15.221Z,19.40
2018-03-25T18:07:41.914Z,19.23
2018-03-25T18:10:08.624Z,19.40
2018-03-25T18:12:35.356Z,20.23
2018-03-25T18:15:02.080Z,19.90
2018-03-25T18:17:34.098Z,20.20
2018-03-25T18:19:55.608Z,19.03
2018-03-25T18:22:22.392Z,19.43
2018-03-25T18:24:49.086Z,19.70
2018-03-25T18:27:15.807Z,19.90
2018-03-25T18:29:42.512Z,20.30
2018-03-25T18:32:09.213Z,19.53
2018-03-25T18:34:35.944Z,20.03
2018-03-25T18:37:02.741Z,21.47
2018-03-25T18:39:29.481Z,19.13
2018-03-25T18:41:56.196Z,20.13
2018-03-25T18:44:22.905Z,19.73
2018-03-25T18:46:49.837Z,19.10
2018-03-25T18:49:16.596Z,19.83
2018-03-25T18:51:43.265Z,20.30
2018-03-25T18:54:09.963Z,19.57
2018-03-25T18:56:36.677Z,18.57
2018-03-25T18:59:03.393Z,20.13
2018-03-25T19:01:30.716Z,20.43
2018-03-25T19:03:57.563Z,19.77
2018-03-25T19:06:24.293Z,19.57
2018-03-25T19:08:51.212Z,20.07
2018-03-25T19:11:17.947Z,21.20
2018-03-25T19:13:44.820Z,20.73
2018-03-25T19:16:11.686Z,22.50
2018-03-25T19:18:38.421Z,24.80
2018-03-25T19:21:05.142Z,24.50
2018-03-25T19:23:31.949Z,24.63
2018-03-25T19:25:58.717Z,25.70
2018-03-25T19:28:25.431Z,23.77
2018-03-25T19:30:52.192Z,25.10
2018-03-25T19:33:19.012Z,23.00
2018-03-25T19:35:45.744Z,25.90
2018-03-25T19:38:12.431Z,24.10
2018-03-25T19:40:39.102Z,26.53
2018-03-25T19:43:05.840Z,24.97
2018-03-25T19:45:32.635Z,25.63
2018-03-25T19:47:59.335Z,24.53
2018-03-25T19:50:26.086Z,24.03
2018-03-25T19:52:52.849Z,24.90
2018-03-25T19:55:19.573Z,25.10
2018-03-25T19:57:46.250Z,23.47
2018-03-25T20:00:12.989Z,26.43
2018-03-25T20:02:39.716Z,25.83
2018-03-25T20:05:06.459Z,26.43
2018-03-25T20:07:33.160Z,23.90
2018-03-25T20:10:00.629Z,25.73
2018-03-25T20:12:27.337Z,25.00
2018-03-25T20:14:54.054Z,25.87
2018-03-25T20:17:20.785Z,25.07
2018-03-25T20:19:47.517Z,25.03
2018-03-25T20:22:14.277Z,25.83
2018-03-25T20:24:40.940Z,25.53
2018-03-25T20:27:07.695Z,24.00
2018-03-25T20:29:34.605Z,27.80
2018-03-25T20:32:01.329Z,25.90
2018-03-25T20:34:28.385Z,24.40
2018-03-25T20:36:55.127Z,25.80
2018-03-25T20:39:21.827Z,25.93
2018-03-25T20:41:48.528Z,25.20
2018-03-25T20:44:15.636Z,26.53
2018-03-25T20:46:42.318Z,24.10
2018-03-25T20:49:09.112Z,26.50
2018-03-25T20:51:35.874Z,26.60
2018-03-25T20:54:02.614Z,24.50
2018-03-25T20:56:29.314Z,25.30
2018-03-25T20:58:56.018Z,25.80
2018-03-25T21:01:22.719Z,27.93
2018-03-25T21:03:50.287Z,25.60
2018-03-25T21:06:16.985Z,25.53
2018-03-25T21:08:43.694Z,26.83
2018-03-25T21:11:10.478Z,26.80
2018-03-25T21:13:37.339Z,26.53
2018-03-25T21:16:04.066Z,26.47
2018-03-25T21:18:30.835Z,26.80
2018-03-25T21:20:57.537Z,27.10
2018-03-25T21:23:24.236Z,27.13
2018-03-25T21:25:50.967Z,26.00
2018-03-25T21:28:17.893Z,26.87
2018-03-25T21:30:44.584Z,27.27
2018-03-25T21:33:11.280Z,25.03
2018-03-25T21:35:37.974Z,26.20
2018-03-25T21:38:04.689Z,25.67
2018-03-25T21:40:31.433Z,25.10
2018-03-25T21:42:58.176Z,24.70
2018-03-25T21:45:24.890Z,25.53
2018-03-25T21:47:51.665Z,25.87
2018-03-25T21:50:18.405Z,27.23
2018-03-25T21:52:45.110Z,25.77
2018-03-25T21:55:11.814Z,24.50
2018-03-25T21:57:38.526Z,26.93
2018-03-25T22:00:05.369Z,27.30
2018-03-25T22:02:32.078Z,27.83
2018-03-25T22:04:58.802Z,27.23
2018-03-25T22:07:25.487Z,28.70
2018-03-25T22:09:52.212Z,28.83
2018-03-25T22:12:18.933Z,29.53
2018-03-25T22:14:45.692Z,28.13
2018-03-25T22:17:12.377Z,29.70
2018-03-25T22:19:39.100Z,32.53
2018-03-25T22:22:06.040Z,31.30
2018-03-25T22:24:32.737Z,31.33
2018-03-25T22:26:59.442Z,34.13
2018-03-25T22:29:26.174Z,34.07
2018-03-25T22:31:52.880Z,35.10
2018-03-25T22:34:19.753Z,33.13
2018-03-25T22:36:46.485Z,33.40
2018-03-25T22:39:13.172Z,34.23
2018-03-25T22:41:39.870Z,34.37
2018-03-25T22:44:06.576Z,37.53
2018-03-25T22:46:33.271Z,35.50
2018-03-25T22:49:00.022Z,39.70
2018-03-25T22:51:26.714Z,38.97
2018-03-25T22:53:53.413Z,38.50
2018-03-25T22:56:20.105Z,38.90
2018-03-25T22:58:46.822Z,37.90
2018-03-25T23:01:13.510Z,38.77
2018-03-25T23:03:40.264Z,41.57
2018-03-25T23:06:06.957Z,41.63
2018-03-25T23:08:33.694Z,45.50
2018-03-25T23:11:00.419Z,47.33
2018-03-25T23:13:27.115Z,46.20
2018-03-25T23:15:53.854Z,47.00
2018-03-25T23:18:20.552Z,46.37
2018-03-25T23:20:47.318Z,47.07
2018-03-25T23:23:14.126Z,47.10
2018-03-25T23:25:40.841Z,45.57
2018-03-25T23:28:07.542Z,48.50
2018-03-25T23:30:34.239Z,46.93
2018-03-25T23:33:00.944Z,48.93
2018-03-25T23:35:27.632Z,51.23
2018-03-25T23:37:54.357Z,47.70
2018-03-25T23:40:21.052Z,50.67
2018-03-25T23:42:47.748Z,51.00
2018-03-25T23:45:14.528Z,48.93
2018-03-25T23:47:41.218Z,50.43
2018-03-25T23:50:07.898Z,51.83
2018-03-25T23:52:34.586Z,50.20
2018-03-25T23:55:01.298Z,52.40
2018-03-25T23:57:27.985Z,50.00
2018-03-25T23:59:54.694Z,52.70
